»·PEaware :: M-YRNA LIMF-LSZA

M-YRNA :: LIMF-LSZA

FLIGHT INFORMATION

Flight Status: Arrived
Operator: Privately registered:
Isle of Man
More flights under this callsign
Pilot: Angelo R. (1452)
Aircraft: BRITISH AERO BAe-3200 JETSTREAM SUPER 31
(JS32)
More flights by this aircraft type
Origin: LIMF Caselle
Italy
Destination: LSZA Lugano
Switzerland
More flights between these airports :: More routes between these airports
Route: SRN
File this flight plan on PilotEdge
Remarks: Testing FIR Milano, Italy
Altitude:
(Current/Filed)
12,000ft
Speed:
(Current/Filed)
220kts
Departed: 06-Jul-13 11:24 AM
Arrived: 06-Jul-13 12:08 PM
Distance/Time
Traveled:
71nm/0:44
Distance/Time
To Go:
Arrived

Flight Plot

Page will automatically refresh every two minutes.


Map Options




Map Legend


Flown Route
Filed Route
Departure Airport
Arrival Airport
Navaid (VOR, NDB)
Fix

Horizontal Profiles

Position Reports

Time Latitude Longitude Heading Altitude Ground
Speed
06-Jul-13 11:12 45.193042 7.645113 270 992ft 0kts
06-Jul-13 11:13 45.193042 7.645113 270 992ft 0kts
06-Jul-13 11:14 45.193042 7.645113 270 992ft 0kts
06-Jul-13 11:15 45.193042 7.645111 270 992ft 0kts
06-Jul-13 11:16 45.193042 7.645111 270 992ft 0kts
06-Jul-13 11:17 45.193042 7.645111 270 992ft 0kts
06-Jul-13 11:18 45.193042 7.645111 270 992ft 0kts
06-Jul-13 11:19 45.193042 7.645111 270 992ft 0kts
06-Jul-13 11:20 45.193089 7.646086 114 992ft 7kts
06-Jul-13 11:21 45.190083 7.646709 182 992ft 16kts
06-Jul-13 11:22 45.187868 7.647642 91 992ft 0kts
06-Jul-13 11:23 45.187868 7.647646 91 992ft 0kts
06-Jul-13 11:24 45.188272 7.648837 2 992ft 2kts
06-Jul-13 11:25 45.216315 7.650707 3 1784ft 151kts
06-Jul-13 11:26 45.252265 7.672871 81 3913ft 174kts
06-Jul-13 11:27 45.218963 7.725208 138 5708ft 200kts
06-Jul-13 11:28 45.191677 7.792800 104 7534ft 210kts
06-Jul-13 11:29 45.174606 7.873714 103 9219ft 220kts
06-Jul-13 11:30 45.156965 7.958067 103 10722ft 226kts
06-Jul-13 11:31 45.141078 8.043819 98 12120ft 228kts
06-Jul-13 11:32 45.127251 8.139619 98 12174ft 265kts
06-Jul-13 11:33 45.113731 8.244595 99 12186ft 275kts
06-Jul-13 11:34 45.133699 8.337959 27 12200ft 270kts
06-Jul-13 11:35 45.194481 8.400492 40 12226ft 271kts
06-Jul-13 11:36 45.250243 8.473022 43 12229ft 272kts
06-Jul-13 11:37 45.304963 8.547528 44 12229ft 273kts
06-Jul-13 11:38 45.358581 8.621310 44 12220ft 253kts
06-Jul-13 11:39 45.408366 8.690152 44 12099ft 252kts
06-Jul-13 11:40 45.458643 8.759835 44 10685ft 252kts
06-Jul-13 11:41 45.508207 8.828773 44 9114ft 242kts
06-Jul-13 11:43 45.582944 8.932880 44 6318ft 222kts
06-Jul-13 11:44 45.635613 9.002754 39 5982ft 181kts
06-Jul-13 11:45 45.682979 8.995442 332 5986ft 176kts
06-Jul-13 11:46 45.727037 8.965188 332 5987ft 175kts
06-Jul-13 11:47 45.770616 8.935163 332 6100ft 169kts
06-Jul-13 11:48 45.814368 8.904888 333 5994ft 171kts
06-Jul-13 11:49 45.856820 8.875460 333 5980ft 168kts
06-Jul-13 11:50 45.892072 8.837043 270 5950ft 166kts
06-Jul-13 11:51 45.859743 8.828723 109 5965ft 165kts
06-Jul-13 11:52 45.892902 8.857695 11 5747ft 180kts
06-Jul-13 11:53 45.941602 8.879908 18 3788ft 175kts
06-Jul-13 11:54 45.984884 8.901076 18 1759ft 158kts
06-Jul-13 11:55 46.018255 8.926733 81 2874ft 145kts
06-Jul-13 11:56 45.985249 8.941589 187 4531ft 149kts
06-Jul-13 11:57 45.957202 8.904866 241 6189ft 147kts
06-Jul-13 11:58 45.928947 8.866957 179 6665ft 158kts
06-Jul-13 11:59 45.886163 8.848658 239 5956ft 164kts
06-Jul-13 12:00 45.864019 8.797107 200 5963ft 149kts
06-Jul-13 12:01 45.849048 8.835375 38 5972ft 150kts
06-Jul-13 12:02 45.889111 8.854905 17 5268ft 150kts
06-Jul-13 12:03 45.927095 8.871810 17 4092ft 139kts
06-Jul-13 12:04 45.963695 8.889387 23 2854ft 132kts
06-Jul-13 12:05 45.989932 8.908413 33 2634ft 104kts
06-Jul-13 12:06 46.019712 8.936214 33 3087ft 162kts
06-Jul-13 12:07 46.060793 8.953678 308 2777ft 169kts
06-Jul-13 12:08 46.031098 8.923849 198 1663ft 137kts
06-Jul-13 12:09 46.003843 8.910350 197 917ft 23kts
06-Jul-13 12:10 46.001439 8.908556 287 917ft 0kts
06-Jul-13 12:11 46.001629 8.907743 290 917ft 4kts
06-Jul-13 12:12 46.001365 8.906926 201 917ft 0kts
06-Jul-13 12:13 46.001365 8.906926 201 917ft 0kts
06-Jul-13 12:14 46.001365 8.906926 201 917ft 0kts
06-Jul-13 12:15 46.001365 8.906926 201 917ft 0kts
06-Jul-13 12:16 46.001365 8.906926 201 917ft 0kts
06-Jul-13 12:17 46.001365 8.906926 201 917ft 0kts
06-Jul-13 12:18 46.001365 8.906926 201 917ft 0kts
06-Jul-13 12:19 46.001365 8.906926 201 917ft 0kts

Navigation Log

Ident Type
1. LIMF Airport
2. SRN Navaid
3. LSZA Airport